Time;durP1;ratioP1;P1;durP2;ratioP2;P2;SDS_P1;SDS_P2;PMS_P1;PMS_P2;Temp;Humidity;BMP_temperature;BMP_pressure;BME280_temperature;BME280_humidity;BME280_pressure;Samples;Min_cycle;Max_cycle;Signal;HPM_P1;HPM_P2
2023/05/27 00:01:06;;;;;;;19.75;4.47;;;;;;;;;;5022176;28;20119;-63
2023/05/27 00:03:33;;;;;;;13.90;4.28;;;;;;;;;;5020659;28;20044;-63
2023/05/27 00:06:01;;;;;;;14.07;3.33;;;;;;;;;;5021034;28;20579;-63
2023/05/27 00:08:27;;;;;;;10.60;3.10;;;;;;;;;;5019529;28;21703;-63
2023/05/27 00:10:53;;;;;;;10.77;3.42;;;;;;;;;;5019735;28;20042;-64
2023/05/27 00:13:19;;;;;;;14.70;3.25;;;;;;;;;;5020055;28;20074;-64
2023/05/27 00:15:45;;;;;;;13.32;3.20;;;;;;;;;;5018917;28;20033;-64
2023/05/27 00:18:11;;;;;;;10.38;2.97;;;;;;;;;;5020244;28;20059;-64
2023/05/27 00:20:37;;;;;;;11.98;3.38;;;;;;;;;;5020450;28;20041;-64
2023/05/27 00:23:04;;;;;;;12.60;3.22;;;;;;;;;;5019788;28;20037;-64
2023/05/27 00:25:31;;;;;;;14.43;3.60;;;;;;;;;;5018807;28;20037;-64
2023/05/27 00:27:57;;;;;;;10.75;3.35;;;;;;;;;;5019829;28;20400;-64
2023/05/27 00:30:23;;;;;;;12.77;3.67;;;;;;;;;;5018860;28;20033;-63
2023/05/27 00:32:49;;;;;;;11.05;3.22;;;;;;;;;;5019956;28;20072;-64
2023/05/27 00:35:15;;;;;;;13.88;3.78;;;;;;;;;;5018827;28;20037;-63
2023/05/27 00:37:42;;;;;;;13.88;3.65;;;;;;;;;;5020769;28;20037;-63
2023/05/27 00:40:10;;;;;;;13.65;4.18;;;;;;;;;;5020953;28;20094;-63
2023/05/27 00:42:36;;;;;;;11.25;3.40;;;;;;;;;;5021281;28;20033;-65
2023/05/27 00:45:03;;;;;;;10.23;2.97;;;;;;;;;;5020827;28;20025;-64
2023/05/27 00:47:30;;;;;;;13.25;3.17;;;;;;;;;;5020309;28;20036;-63
2023/05/27 00:49:56;;;;;;;9.40;3.08;;;;;;;;;;5021627;28;20044;-64
2023/05/27 00:52:22;;;;;;;14.55;3.63;;;;;;;;;;5020533;28;20029;-63
2023/05/27 00:54:48;;;;;;;10.77;3.70;;;;;;;;;;5021482;28;20033;-63
2023/05/27 00:57:15;;;;;;;13.18;3.05;;;;;;;;;;5020045;28;20045;-64
2023/05/27 00:59:41;;;;;;;9.60;3.20;;;;;;;;;;5019935;28;20037;-64
2023/05/27 01:02:07;;;;;;;14.32;3.97;;;;;;;;;;5020367;28;20048;-63
2023/05/27 01:04:33;;;;;;;11.68;3.30;;;;;;;;;;5020318;28;20044;-63
2023/05/27 01:07:04;;;;;;;11.38;3.33;;;;;;;;;;5020526;28;20126;-63
2023/05/27 01:09:34;;;;;;;10.85;3.28;;;;;;;;;;5020409;28;20028;-63
2023/05/27 01:12:07;;;;;;;11.40;3.50;;;;;;;;;;5020363;28;20117;-64
2023/05/27 01:14:34;;;;;;;10.57;3.20;;;;;;;;;;5021067;28;20031;-63
2023/05/27 01:17:02;;;;;;;12.30;3.35;;;;;;;;;;5020959;28;20052;-63
2023/05/27 01:19:31;;;;;;;9.73;2.70;;;;;;;;;;5020069;28;20017;-64
2023/05/27 01:21:59;;;;;;;9.40;2.95;;;;;;;;;;5019880;28;20115;-63
2023/05/27 01:24:25;;;;;;;14.68;4.20;;;;;;;;;;5019665;28;20554;-64
2023/05/27 01:26:51;;;;;;;11.48;2.90;;;;;;;;;;5019984;28;20488;-63
2023/05/27 01:29:17;;;;;;;12.85;3.20;;;;;;;;;;5020572;28;20571;-63
2023/05/27 01:31:52;;;;;;;11.68;3.78;;;;;;;;;;5020457;28;20037;-63
2023/05/27 01:34:21;;;;;;;13.20;4.63;;;;;;;;;;5020276;28;20779;-63
2023/05/27 01:36:49;;;;;;;9.95;3.33;;;;;;;;;;5020324;28;20080;-63
2023/05/27 01:39:16;;;;;;;10.50;3.20;;;;;;;;;;5019770;28;20029;-63
2023/05/27 01:41:42;;;;;;;10.10;3.15;;;;;;;;;;5020259;28;20124;-63
2023/05/27 01:44:10;;;;;;;13.52;4.20;;;;;;;;;;5019712;28;20037;-63
2023/05/27 01:46:36;;;;;;;6.32;2.63;;;;;;;;;;5019827;28;20102;-63
2023/05/27 01:49:03;;;;;;;8.25;3.13;;;;;;;;;;5020532;28;20025;-63
2023/05/27 01:51:29;;;;;;;10.48;3.22;;;;;;;;;;5020495;28;20064;-64
2023/05/27 01:53:55;;;;;;;10.52;3.47;;;;;;;;;;5021616;28;20033;-64
2023/05/27 01:56:22;;;;;;;10.10;3.10;;;;;;;;;;5024279;28;20075;-63
2023/05/27 01:58:48;;;;;;;10.50;3.47;;;;;;;;;;5022991;28;20029;-63
2023/05/27 02:01:14;;;;;;;10.80;2.85;;;;;;;;;;5023711;28;20120;-63
2023/05/27 02:03:40;;;;;;;11.50;3.00;;;;;;;;;;5023076;28;20074;-63
2023/05/27 02:06:06;;;;;;;9.38;3.03;;;;;;;;;;5024130;28;20040;-64
2023/05/27 02:08:33;;;;;;;12.45;3.83;;;;;;;;;;5024530;28;20033;-63
2023/05/27 02:10:59;;;;;;;11.05;2.72;;;;;;;;;;5024115;28;20018;-64
2023/05/27 02:13:25;;;;;;;9.35;2.78;;;;;;;;;;5022237;28;20053;-64
2023/05/27 02:15:51;;;;;;;10.35;3.03;;;;;;;;;;5023661;28;20068;-64
2023/05/27 02:18:20;;;;;;;11.95;3.38;;;;;;;;;;5023607;28;20060;-64
2023/05/27 02:20:46;;;;;;;9.10;3.10;;;;;;;;;;5022941;28;20037;-64
2023/05/27 02:23:12;;;;;;;8.15;2.95;;;;;;;;;;5024106;28;20033;-64
2023/05/27 02:25:38;;;;;;;12.77;3.05;;;;;;;;;;5023453;28;20032;-64
2023/05/27 02:28:05;;;;;;;9.05;2.65;;;;;;;;;;5021513;28;20033;-64
2023/05/27 02:30:31;;;;;;;13.93;2.58;;;;;;;;;;5020765;28;20083;-63
2023/05/27 02:32:57;;;;;;;11.00;2.80;;;;;;;;;;5022015;28;20036;-64
2023/05/27 02:35:23;;;;;;;11.50;3.65;;;;;;;;;;5022237;28;20034;-64
2023/05/27 02:37:49;;;;;;;9.63;2.85;;;;;;;;;;5021728;28;20037;-63
2023/05/27 02:40:28;;;;;;;12.07;3.10;;;;;;;;;;5023631;28;20492;-63
2023/05/27 02:42:54;;;;;;;11.90;3.45;;;;;;;;;;5023008;28;20037;-63
2023/05/27 02:45:20;;;;;;;9.15;2.95;;;;;;;;;;5024014;28;20042;-64
2023/05/27 02:47:46;;;;;;;9.50;3.25;;;;;;;;;;5023424;28;20029;-64
2023/05/27 02:50:12;;;;;;;11.82;3.00;;;;;;;;;;5021863;28;21846;-64
2023/05/27 02:52:38;;;;;;;11.88;3.83;;;;;;;;;;5021360;28;20037;-63
2023/05/27 02:55:05;;;;;;;10.43;2.67;;;;;;;;;;5021966;28;20034;-64
2023/05/27 02:57:31;;;;;;;12.18;3.05;;;;;;;;;;5022837;28;20040;-63
2023/05/27 02:59:57;;;;;;;10.60;2.72;;;;;;;;;;5022154;28;20123;-63
2023/05/27 03:02:23;;;;;;;13.80;2.90;;;;;;;;;;5022604;28;20095;-63
2023/05/27 03:04:49;;;;;;;9.82;2.85;;;;;;;;;;5022153;28;20033;-63
2023/05/27 03:07:15;;;;;;;9.98;2.85;;;;;;;;;;5021703;28;20025;-63
2023/05/27 03:09:41;;;;;;;8.77;2.60;;;;;;;;;;5021918;28;20048;-63
2023/05/27 03:12:07;;;;;;;13.68;3.83;;;;;;;;;;5022478;28;20033;-63
2023/05/27 03:14:33;;;;;;;7.82;3.13;;;;;;;;;;5021248;28;20628;-64
2023/05/27 03:16:59;;;;;;;18.85;3.30;;;;;;;;;;5021779;28;20553;-63
2023/05/27 03:19:25;;;;;;;11.68;3.05;;;;;;;;;;5020597;28;20064;-64
2023/05/27 03:21:52;;;;;;;7.88;2.83;;;;;;;;;;5022246;28;20120;-63
2023/05/27 03:24:18;;;;;;;10.25;2.90;;;;;;;;;;5021465;28;20048;-63
2023/05/27 03:26:44;;;;;;;11.20;3.53;;;;;;;;;;5022054;28;20041;-64
2023/05/27 03:29:10;;;;;;;12.00;3.30;;;;;;;;;;5022013;28;20040;-64
2023/05/27 03:31:36;;;;;;;9.80;3.08;;;;;;;;;;5021108;28;20037;-63
2023/05/27 03:34:03;;;;;;;15.98;3.58;;;;;;;;;;5021484;28;20151;-64
2023/05/27 03:36:29;;;;;;;15.57;3.90;;;;;;;;;;5021740;28;20510;-64
2023/05/27 03:38:56;;;;;;;14.75;4.10;;;;;;;;;;5021455;28;20040;-64
2023/05/27 03:41:22;;;;;;;15.43;4.32;;;;;;;;;;5022721;28;20151;-63
2023/05/27 03:43:48;;;;;;;15.68;4.05;;;;;;;;;;5022021;28;20033;-64
2023/05/27 03:46:14;;;;;;;12.30;3.47;;;;;;;;;;5022329;28;20025;-63
2023/05/27 03:48:40;;;;;;;10.73;3.58;;;;;;;;;;5021858;28;20033;-63
2023/05/27 03:51:06;;;;;;;9.38;2.90;;;;;;;;;;5021947;28;20032;-64
2023/05/27 03:53:32;;;;;;;12.60;3.30;;;;;;;;;;5021631;28;20146;-64
2023/05/27 03:55:59;;;;;;;8.57;2.60;;;;;;;;;;5021385;28;20505;-64
2023/05/27 03:58:25;;;;;;;9.32;3.03;;;;;;;;;;5021592;28;20044;-63
2023/05/27 04:00:51;;;;;;;10.77;3.17;;;;;;;;;;5022151;28;20964;-64
2023/05/27 04:03:18;;;;;;;14.27;3.25;;;;;;;;;;5021340;28;20548;-64
2023/05/27 04:05:44;;;;;;;13.52;3.20;;;;;;;;;;5021785;28;20025;-63
2023/05/27 04:08:13;;;;;;;15.82;3.40;;;;;;;;;;5020620;28;20043;-64
2023/05/27 04:10:39;;;;;;;12.07;3.15;;;;;;;;;;5021888;28;20040;-64
2023/05/27 04:13:05;;;;;;;12.80;3.30;;;;;;;;;;5020957;28;20044;-64
2023/05/27 04:15:31;;;;;;;11.25;3.17;;;;;;;;;;5020805;28;20067;-64
2023/05/27 04:17:57;;;;;;;11.93;3.28;;;;;;;;;;5020788;28;20048;-63
2023/05/27 04:20:23;;;;;;;10.23;2.88;;;;;;;;;;5021724;28;20029;-63
2023/05/27 04:22:49;;;;;;;13.57;3.97;;;;;;;;;;5021173;28;20041;-64
2023/05/27 04:25:15;;;;;;;13.52;3.95;;;;;;;;;;5021448;28;20036;-63
2023/05/27 04:27:42;;;;;;;11.23;3.70;;;;;;;;;;5019661;28;20038;-64
2023/05/27 04:30:08;;;;;;;11.73;3.67;;;;;;;;;;5019604;28;20037;-64
2023/05/27 04:32:37;;;;;;;15.88;3.45;;;;;;;;;;5019855;28;20737;-64
2023/05/27 04:35:04;;;;;;;13.30;4.25;;;;;;;;;;5019135;28;20036;-64
2023/05/27 04:37:31;;;;;;;14.90;4.20;;;;;;;;;;5020990;28;20047;-64
2023/05/27 04:39:57;;;;;;;14.68;3.58;;;;;;;;;;5019077;28;20044;-63
2023/05/27 04:42:26;;;;;;;15.00;4.60;;;;;;;;;;5019315;28;20079;-63
2023/05/27 04:44:52;;;;;;;13.05;3.45;;;;;;;;;;5020034;28;20029;-64
2023/05/27 04:47:18;;;;;;;13.55;4.28;;;;;;;;;;5020808;28;20025;-64
2023/05/27 04:49:46;;;;;;;20.50;4.88;;;;;;;;;;5021461;28;20035;-64
2023/05/27 04:52:12;;;;;;;15.20;3.28;;;;;;;;;;5020555;28;20057;-63
2023/05/27 04:54:38;;;;;;;17.63;3.80;;;;;;;;;;5020541;28;20037;-63
2023/05/27 04:57:04;;;;;;;15.05;4.68;;;;;;;;;;5020424;28;20060;-64
2023/05/27 04:59:46;;;;;;;13.25;4.10;;;;;;;;;;5020667;28;20048;-64
2023/05/27 05:02:21;;;;;;;16.23;3.33;;;;;;;;;;5020388;28;20120;-64
2023/05/27 05:04:47;;;;;;;13.60;4.20;;;;;;;;;;5019829;28;20036;-64
2023/05/27 05:07:14;;;;;;;15.15;3.90;;;;;;;;;;5021181;28;20032;-64
2023/05/27 05:09:40;;;;;;;16.05;4.10;;;;;;;;;;5020403;28;20029;-64
2023/05/27 05:12:07;;;;;;;13.95;4.22;;;;;;;;;;5019274;28;20041;-64
2023/05/27 05:14:33;;;;;;;14.88;4.95;;;;;;;;;;5020558;28;20033;-64
2023/05/27 05:16:59;;;;;;;15.70;3.90;;;;;;;;;;5018390;28;20061;-64
2023/05/27 05:19:25;;;;;;;12.20;3.40;;;;;;;;;;5019365;28;20032;-64
2023/05/27 05:21:51;;;;;;;15.98;4.85;;;;;;;;;;5018128;28;20069;-64
2023/05/27 05:24:17;;;;;;;25.15;4.30;;;;;;;;;;5020007;28;20131;-64
2023/05/27 05:26:46;;;;;;;14.45;3.65;;;;;;;;;;5018377;28;20030;-64
2023/05/27 05:29:12;;;;;;;12.27;3.53;;;;;;;;;;5022179;28;20032;-64
2023/05/27 05:31:38;;;;;;;14.85;3.70;;;;;;;;;;5023078;28;20059;-64
2023/05/27 05:34:05;;;;;;;23.13;3.55;;;;;;;;;;5024695;28;20029;-64
2023/05/27 05:36:31;;;;;;;14.80;3.78;;;;;;;;;;5024083;28;20116;-64
2023/05/27 05:38:57;;;;;;;13.43;3.55;;;;;;;;;;5023381;28;20032;-64
2023/05/27 05:41:23;;;;;;;21.25;4.72;;;;;;;;;;5022948;28;20589;-65
2023/05/27 05:43:49;;;;;;;12.57;3.78;;;;;;;;;;5022360;28;20675;-65
2023/05/27 05:46:15;;;;;;;18.00;4.28;;;;;;;;;;5022943;28;21698;-64
2023/05/27 05:48:41;;;;;;;15.48;3.70;;;;;;;;;;5023113;28;20029;-64
2023/05/27 05:51:07;;;;;;;12.38;3.63;;;;;;;;;;5022374;28;20048;-64
2023/05/27 05:53:34;;;;;;;16.83;3.90;;;;;;;;;;5023524;28;20034;-64
2023/05/27 05:56:00;;;;;;;14.85;4.55;;;;;;;;;;5023923;28;20561;-64
2023/05/27 05:58:26;;;;;;;15.50;3.72;;;;;;;;;;5023617;28;20049;-64
2023/05/27 06:00:52;;;;;;;17.27;4.22;;;;;;;;;;5023251;28;20051;-64
2023/05/27 06:03:18;;;;;;;11.80;4.40;;;;;;;;;;5023538;28;20111;-64
2023/05/27 06:05:44;;;;;;;14.30;3.97;;;;;;;;;;5023820;28;20029;-64
2023/05/27 06:08:10;;;;;;;15.82;3.92;;;;;;;;;;5024270;28;20040;-65
2023/05/27 06:10:36;;;;;;;15.70;3.67;;;;;;;;;;5022285;28;20055;-64
2023/05/27 06:13:02;;;;;;;19.38;4.18;;;;;;;;;;5022652;28;20082;-64
2023/05/27 06:15:29;;;;;;;15.23;4.15;;;;;;;;;;5023555;28;20451;-65
2023/05/27 06:17:55;;;;;;;19.00;4.07;;;;;;;;;;5022952;28;20487;-65
2023/05/27 06:20:22;;;;;;;21.63;5.05;;;;;;;;;;5023196;28;20134;-65
2023/05/27 06:22:48;;;;;;;13.40;4.15;;;;;;;;;;5023181;28;20640;-65
2023/05/27 06:25:15;;;;;;;18.08;4.15;;;;;;;;;;5023026;28;20079;-65
2023/05/27 06:27:41;;;;;;;15.75;3.40;;;;;;;;;;5022720;28;20082;-65
2023/05/27 06:30:08;;;;;;;13.40;4.07;;;;;;;;;;5023367;28;20499;-65
2023/05/27 06:32:34;;;;;;;18.38;4.90;;;;;;;;;;5023448;28;20048;-65
2023/05/27 06:35:00;;;;;;;22.45;5.07;;;;;;;;;;5021849;28;20029;-65
2023/05/27 06:37:26;;;;;;;21.23;4.57;;;;;;;;;;5021226;28;20124;-64
2023/05/27 06:39:52;;;;;;;12.77;3.47;;;;;;;;;;5021717;28;20033;-64
2023/05/27 06:42:18;;;;;;;17.73;4.57;;;;;;;;;;5021685;28;20091;-65
2023/05/27 06:44:44;;;;;;;14.93;4.45;;;;;;;;;;5021176;28;21794;-65
2023/05/27 06:47:11;;;;;;;17.08;4.10;;;;;;;;;;5023498;28;20120;-64
2023/05/27 06:49:37;;;;;;;21.65;5.32;;;;;;;;;;5023451;28;20455;-64
2023/05/27 06:52:04;;;;;;;13.20;3.40;;;;;;;;;;5021824;28;20025;-64
2023/05/27 06:54:30;;;;;;;16.90;4.00;;;;;;;;;;5022950;28;20041;-64
2023/05/27 06:56:56;;;;;;;20.30;4.00;;;;;;;;;;5022741;28;20029;-65
2023/05/27 06:59:22;;;;;;;16.67;4.30;;;;;;;;;;5022513;28;21040;-65
2023/05/27 07:01:48;;;;;;;18.50;4.50;;;;;;;;;;5023039;28;21759;-64
2023/05/27 07:04:15;;;;;;;17.67;4.32;;;;;;;;;;5023427;28;21176;-64
2023/05/27 07:06:41;;;;;;;17.67;3.80;;;;;;;;;;5023496;28;20132;-64
2023/05/27 07:09:07;;;;;;;21.23;4.93;;;;;;;;;;5021984;28;20054;-64
2023/05/27 07:11:33;;;;;;;15.82;4.47;;;;;;;;;;5021937;28;20086;-65
2023/05/27 07:13:59;;;;;;;18.38;5.40;;;;;;;;;;5022987;28;20056;-64
2023/05/27 07:16:25;;;;;;;17.52;4.22;;;;;;;;;;5021392;28;20029;-64
2023/05/27 07:18:52;;;;;;;16.95;4.72;;;;;;;;;;5022937;28;20054;-64
2023/05/27 07:21:18;;;;;;;17.27;4.05;;;;;;;;;;5022529;28;20029;-65
2023/05/27 07:23:44;;;;;;;15.57;4.22;;;;;;;;;;5022627;28;20079;-64
2023/05/27 07:26:10;;;;;;;17.88;4.65;;;;;;;;;;5021457;28;20499;-64
2023/05/27 07:28:37;;;;;;;18.77;4.70;;;;;;;;;;5021938;28;20162;-65
2023/05/27 07:31:03;;;;;;;18.98;5.22;;;;;;;;;;5020608;28;20033;-64
2023/05/27 07:33:29;;;;;;;18.50;4.28;;;;;;;;;;5021983;28;21043;-64
2023/05/27 07:35:55;;;;;;;18.33;4.60;;;;;;;;;;5023032;28;20480;-64
2023/05/27 07:38:21;;;;;;;18.85;4.75;;;;;;;;;;5021652;28;20072;-65
2023/05/27 07:40:47;;;;;;;20.00;5.55;;;;;;;;;;5021938;28;20037;-64
2023/05/27 07:43:13;;;;;;;14.70;3.80;;;;;;;;;;5020339;28;20037;-65
2023/05/27 07:45:39;;;;;;;17.15;4.15;;;;;;;;;;5022590;28;20508;-65
2023/05/27 07:48:05;;;;;;;17.40;4.57;;;;;;;;;;5020980;28;20037;-58
2023/05/27 07:50:31;;;;;;;16.00;3.78;;;;;;;;;;5020605;28;20083;-58
2023/05/27 07:52:57;;;;;;;14.93;4.22;;;;;;;;;;5021074;28;20040;-58
2023/05/27 07:55:23;;;;;;;15.73;4.25;;;;;;;;;;5020671;28;20465;-59
2023/05/27 07:57:51;;;;;;;12.27;3.63;;;;;;;;;;5020932;28;21074;-58
2023/05/27 08:00:17;;;;;;;13.98;4.68;;;;;;;;;;5021002;28;20456;-58
2023/05/27 08:02:43;;;;;;;14.18;4.18;;;;;;;;;;5020795;28;20070;-58
2023/05/27 08:05:10;;;;;;;15.60;4.25;;;;;;;;;;5021007;28;21792;-58
2023/05/27 08:07:36;;;;;;;12.52;4.00;;;;;;;;;;5021407;28;20427;-58
2023/05/27 08:10:02;;;;;;;17.98;4.30;;;;;;;;;;5020731;28;21010;-59
2023/05/27 08:12:28;;;;;;;21.25;5.68;;;;;;;;;;5021380;28;20037;-59
2023/05/27 08:14:54;;;;;;;17.50;4.47;;;;;;;;;;5020290;28;20040;-58
2023/05/27 08:17:21;;;;;;;13.98;3.97;;;;;;;;;;5021042;28;20059;-59
2023/05/27 08:19:47;;;;;;;17.80;4.82;;;;;;;;;;5021049;28;21496;-59
2023/05/27 08:22:13;;;;;;;16.95;4.38;;;;;;;;;;5020087;28;20036;-59
2023/05/27 08:24:39;;;;;;;14.98;5.05;;;;;;;;;;5021041;28;20160;-58
2023/05/27 08:27:05;;;;;;;18.60;4.90;;;;;;;;;;5021507;28;20032;-58
2023/05/27 08:29:32;;;;;;;14.07;4.47;;;;;;;;;;5020467;28;20562;-58
2023/05/27 08:31:59;;;;;;;15.25;4.68;;;;;;;;;;5020865;28;20036;-58
2023/05/27 08:34:25;;;;;;;13.32;4.63;;;;;;;;;;5020835;28;20037;-59
2023/05/27 08:36:52;;;;;;;15.60;5.72;;;;;;;;;;5020706;28;21898;-58
2023/05/27 08:39:18;;;;;;;20.13;6.50;;;;;;;;;;5018793;28;20503;-59
2023/05/27 08:41:44;;;;;;;18.40;5.65;;;;;;;;;;5018415;28;20450;-58
2023/05/27 08:44:10;;;;;;;15.32;5.45;;;;;;;;;;5020144;28;20025;-59
2023/05/27 08:46:37;;;;;;;16.10;6.35;;;;;;;;;;5019510;28;20214;-59
2023/05/27 08:49:03;;;;;;;17.80;5.15;;;;;;;;;;5019376;28;20501;-58
2023/05/27 08:51:29;;;;;;;13.68;5.07;;;;;;;;;;5019771;28;20033;-64
2023/05/27 08:53:55;;;;;;;17.92;5.32;;;;;;;;;;5020384;28;21316;-64
2023/05/27 08:56:22;;;;;;;17.85;5.18;;;;;;;;;;5019766;28;20037;-64
2023/05/27 08:58:48;;;;;;;19.33;5.10;;;;;;;;;;5021188;28;20025;-64
2023/05/27 09:01:18;;;;;;;14.77;4.63;;;;;;;;;;5020163;28;20036;-64
2023/05/27 09:03:45;;;;;;;19.95;5.68;;;;;;;;;;5020581;28;20661;-64
2023/05/27 09:06:11;;;;;;;14.07;4.28;;;;;;;;;;5020467;28;20484;-64
2023/05/27 09:08:37;;;;;;;17.25;4.63;;;;;;;;;;5019960;28;20040;-64
2023/05/27 09:11:07;;;;;;;19.00;4.97;;;;;;;;;;5020408;28;20044;-64
2023/05/27 09:13:33;;;;;;;19.00;5.97;;;;;;;;;;5020344;28;20108;-64
2023/05/27 09:16:03;;;;;;;14.23;4.97;;;;;;;;;;5019779;28;20034;-64
2023/05/27 09:18:33;;;;;;;19.10;5.25;;;;;;;;;;5018802;28;20117;-64
2023/05/27 09:20:59;;;;;;;15.50;5.40;;;;;;;;;;5018184;28;20045;-64
2023/05/27 09:23:25;;;;;;;18.65;4.82;;;;;;;;;;5018967;28;20396;-64
2023/05/27 09:25:55;;;;;;;16.63;4.45;;;;;;;;;;5020392;28;20925;-64
2023/05/27 09:28:24;;;;;;;14.85;4.68;;;;;;;;;;5019347;28;20056;-64
2023/05/27 09:30:52;;;;;;;18.10;4.65;;;;;;;;;;5019159;28;20029;-64
2023/05/27 09:33:23;;;;;;;18.77;5.60;;;;;;;;;;5018499;28;20053;-64
2023/05/27 09:35:50;;;;;;;17.33;4.93;;;;;;;;;;5020129;28;20445;-63
2023/05/27 09:38:16;;;;;;;15.38;4.88;;;;;;;;;;5018906;28;20033;-64
2023/05/27 09:40:44;;;;;;;14.50;4.55;;;;;;;;;;5019442;28;20041;-64
2023/05/27 09:43:15;;;;;;;21.05;4.53;;;;;;;;;;5019686;28;20041;-64
2023/05/27 09:45:41;;;;;;;14.32;4.10;;;;;;;;;;5020027;28;20025;-64
2023/05/27 09:48:08;;;;;;;16.92;5.00;;;;;;;;;;5020053;28;20099;-64
2023/05/27 09:50:34;;;;;;;15.27;4.43;;;;;;;;;;5019242;28;20040;-64
2023/05/27 09:53:02;;;;;;;17.17;4.43;;;;;;;;;;5020671;28;20449;-64
2023/05/27 09:55:29;;;;;;;12.68;4.50;;;;;;;;;;5019517;28;20033;-64
2023/05/27 09:57:56;;;;;;;14.27;4.57;;;;;;;;;;5019853;28;20044;-64
2023/05/27 10:00:22;;;;;;;16.75;4.82;;;;;;;;;;5019447;28;20038;-64
2023/05/27 10:02:48;;;;;;;16.02;4.35;;;;;;;;;;5020161;28;20112;-64
2023/05/27 10:05:15;;;;;;;15.45;4.82;;;;;;;;;;5018877;28;20041;-64
2023/05/27 10:07:43;;;;;;;17.50;4.25;;;;;;;;;;5020507;28;20017;-63
2023/05/27 10:10:11;;;;;;;11.88;4.22;;;;;;;;;;5019992;28;20068;-63
2023/05/27 10:12:37;;;;;;;17.58;4.90;;;;;;;;;;5019173;28;20036;-64
2023/05/27 10:15:04;;;;;;;25.27;6.20;;;;;;;;;;5020700;28;20033;-64
2023/05/27 10:17:47;;;;;;;18.60;5.32;;;;;;;;;;5022426;28;20068;-64
2023/05/27 10:20:13;;;;;;;15.63;4.83;;;;;;;;;;5022692;28;20056;-64
2023/05/27 10:22:39;;;;;;;17.33;4.72;;;;;;;;;;5022704;28;20297;-63
2023/05/27 10:25:13;;;;;;;16.63;4.30;;;;;;;;;;5023289;28;20040;-63
2023/05/27 10:27:43;;;;;;;10.50;4.18;;;;;;;;;;5023087;28;20026;-64
2023/05/27 10:30:09;;;;;;;13.65;4.50;;;;;;;;;;5021874;28;20064;-64
2023/05/27 10:32:42;;;;;;;14.48;5.10;;;;;;;;;;5023000;28;20033;-63
2023/05/27 10:35:09;;;;;;;15.07;4.30;;;;;;;;;;5021727;28;20385;-63
2023/05/27 10:37:35;;;;;;;15.55;4.68;;;;;;;;;;5022625;28;20115;-64
2023/05/27 10:40:01;;;;;;;18.02;5.72;;;;;;;;;;5022750;28;20037;-64
2023/05/27 10:42:27;;;;;;;10.73;4.35;;;;;;;;;;5022313;28;20770;-64
2023/05/27 10:45:05;;;;;;;15.27;5.03;;;;;;;;;;5021033;28;20438;-63
2023/05/27 10:47:31;;;;;;;14.45;4.40;;;;;;;;;;5020344;28;20530;-64
2023/05/27 10:49:57;;;;;;;18.10;4.38;;;;;;;;;;5020884;28;20048;-64
2023/05/27 10:52:26;;;;;;;18.45;4.65;;;;;;;;;;5020579;28;20063;-64
2023/05/27 10:54:54;;;;;;;14.23;5.30;;;;;;;;;;5021209;28;20026;-64
2023/05/27 10:57:22;;;;;;;16.55;5.13;;;;;;;;;;5020376;28;20037;-64
2023/05/27 10:59:58;;;;;;;16.65;4.88;;;;;;;;;;5021226;28;20033;-63
2023/05/27 11:02:24;;;;;;;13.00;3.85;;;;;;;;;;5020158;28;20037;-64
2023/05/27 11:04:51;;;;;;;15.13;4.82;;;;;;;;;;5020478;28;20040;-63
2023/05/27 11:07:20;;;;;;;13.43;4.72;;;;;;;;;;5019794;28;20583;-64
2023/05/27 11:09:47;;;;;;;14.18;4.72;;;;;;;;;;5020094;28;20033;-64
2023/05/27 11:12:16;;;;;;;11.73;4.65;;;;;;;;;;5020535;28;20033;-63
2023/05/27 11:14:45;;;;;;;13.02;4.80;;;;;;;;;;5021168;28;20472;-63
2023/05/27 11:17:12;;;;;;;15.75;4.97;;;;;;;;;;5020678;28;20052;-64
2023/05/27 11:19:41;;;;;;;14.98;4.80;;;;;;;;;;5021584;28;21777;-63
2023/05/27 11:22:08;;;;;;;12.65;4.63;;;;;;;;;;5021445;28;20052;-64
2023/05/27 11:24:36;;;;;;;14.65;4.65;;;;;;;;;;5019985;28;20121;-64
2023/05/27 11:27:08;;;;;;;18.02;5.55;;;;;;;;;;5019771;28;20828;-63
2023/05/27 11:29:35;;;;;;;13.55;4.72;;;;;;;;;;5019972;28;20497;-64
2023/05/27 11:32:01;;;;;;;15.57;5.53;;;;;;;;;;5020224;28;20040;-63
2023/05/27 11:34:28;;;;;;;15.85;4.97;;;;;;;;;;5019250;28;20045;-63
2023/05/27 11:36:55;;;;;;;14.02;4.63;;;;;;;;;;5020114;28;20122;-64
2023/05/27 11:39:22;;;;;;;12.25;4.95;;;;;;;;;;5020538;28;20060;-63
2023/05/27 11:41:52;;;;;;;15.18;4.78;;;;;;;;;;5020154;28;20648;-63
2023/05/27 11:44:19;;;;;;;13.65;5.07;;;;;;;;;;5020880;28;20033;-63
2023/05/27 11:46:45;;;;;;;16.35;4.88;;;;;;;;;;5021639;28;20029;-64
2023/05/27 11:49:14;;;;;;;15.52;5.30;;;;;;;;;;5021362;28;20033;-65
2023/05/27 11:51:42;;;;;;;12.70;4.68;;;;;;;;;;5020737;28;20021;-64
2023/05/27 11:54:08;;;;;;;12.90;4.97;;;;;;;;;;5020860;28;20036;-64
2023/05/27 11:56:34;;;;;;;15.75;4.35;;;;;;;;;;5024279;28;20045;-64
2023/05/27 11:59:00;;;;;;;14.30;5.47;;;;;;;;;;5021822;28;20499;-64
2023/05/27 12:01:26;;;;;;;18.88;5.55;;;;;;;;;;5022393;28;20045;-64
2023/05/27 12:03:52;;;;;;;13.65;5.38;;;;;;;;;;5021048;28;20029;-64
2023/05/27 12:06:19;;;;;;;13.20;4.40;;;;;;;;;;5020711;28;20033;-64
2023/05/27 12:08:45;;;;;;;16.83;5.63;;;;;;;;;;5020906;28;20029;-64
2023/05/27 12:11:11;;;;;;;14.75;5.25;;;;;;;;;;5019924;28;20025;-63
2023/05/27 12:13:37;;;;;;;13.48;4.57;;;;;;;;;;5020653;28;20071;-63
2023/05/27 12:16:03;;;;;;;11.32;5.00;;;;;;;;;;5020393;28;20036;-64
2023/05/27 12:18:29;;;;;;;15.45;5.30;;;;;;;;;;5020177;28;20602;-63
2023/05/27 12:20:56;;;;;;;13.27;4.80;;;;;;;;;;5020472;28;20025;-64
2023/05/27 12:23:22;;;;;;;15.18;5.00;;;;;;;;;;5019682;28;20567;-64
2023/05/27 12:25:48;;;;;;;12.27;4.55;;;;;;;;;;5020135;28;20029;-63
2023/05/27 12:28:14;;;;;;;11.77;4.70;;;;;;;;;;5020483;28;20142;-63
2023/05/27 12:30:40;;;;;;;12.90;5.43;;;;;;;;;;5020378;28;20029;-63
2023/05/27 12:33:07;;;;;;;14.30;4.72;;;;;;;;;;5019695;28;20095;-63
2023/05/27 12:35:33;;;;;;;14.98;5.43;;;;;;;;;;5020117;28;20057;-63
2023/05/27 12:37:59;;;;;;;14.20;5.18;;;;;;;;;;5020061;28;20047;-63
2023/05/27 12:40:26;;;;;;;10.93;4.53;;;;;;;;;;5021360;28;20025;-63
2023/05/27 12:42:52;;;;;;;15.75;4.70;;;;;;;;;;5020149;28;20033;-64
2023/05/27 12:45:21;;;;;;;16.63;5.00;;;;;;;;;;5020951;28;20052;-64
2023/05/27 12:47:47;;;;;;;15.27;5.18;;;;;;;;;;5019440;28;20106;-64
2023/05/27 12:50:13;;;;;;;14.27;4.55;;;;;;;;;;5020096;28;20025;-64
2023/05/27 12:52:45;;;;;;;12.43;4.30;;;;;;;;;;5020972;28;20037;-64
2023/05/27 12:55:12;;;;;;;13.13;4.68;;;;;;;;;;5017272;28;20029;-63
2023/05/27 12:57:38;;;;;;;16.88;5.70;;;;;;;;;;5018973;28;20033;-64
2023/05/27 13:00:04;;;;;;;16.02;5.38;;;;;;;;;;5018368;28;20028;-64
2023/05/27 13:02:30;;;;;;;13.20;4.93;;;;;;;;;;5019860;28;20095;-59
2023/05/27 13:04:56;;;;;;;14.85;4.40;;;;;;;;;;5017535;28;20033;-59
2023/05/27 13:07:22;;;;;;;12.70;4.82;;;;;;;;;;5019105;28;20026;-59
2023/05/27 13:09:48;;;;;;;13.23;4.72;;;;;;;;;;5020278;28;20155;-58
2023/05/27 13:12:14;;;;;;;13.45;4.93;;;;;;;;;;5020188;28;20388;-59
2023/05/27 13:14:42;;;;;;;13.45;4.47;;;;;;;;;;5020047;28;20561;-59
2023/05/27 13:17:08;;;;;;;10.75;4.20;;;;;;;;;;5019887;28;20049;-59
2023/05/27 13:19:34;;;;;;;14.57;4.63;;;;;;;;;;5018097;28;20044;-59
2023/05/27 13:22:01;;;;;;;14.32;4.97;;;;;;;;;;5019755;28;20044;-59
2023/05/27 13:24:27;;;;;;;14.82;4.65;;;;;;;;;;5019181;28;20310;-59
2023/05/27 13:26:53;;;;;;;16.75;5.00;;;;;;;;;;5019772;28;20036;-59
2023/05/27 13:29:19;;;;;;;13.63;5.07;;;;;;;;;;5019032;28;20060;-59
2023/05/27 13:31:46;;;;;;;14.23;5.43;;;;;;;;;;5020690;28;20064;-59
2023/05/27 13:34:12;;;;;;;13.50;5.25;;;;;;;;;;5019786;28;20126;-59
2023/05/27 13:36:38;;;;;;;16.85;5.25;;;;;;;;;;5019233;28;20516;-59
2023/05/27 13:39:04;;;;;;;14.95;5.32;;;;;;;;;;5020007;28;20041;-59
2023/05/27 13:41:30;;;;;;;16.17;5.88;;;;;;;;;;5020045;28;20037;-59
2023/05/27 13:43:56;;;;;;;12.95;5.28;;;;;;;;;;5019232;28;20033;-58
2023/05/27 13:46:22;;;;;;;14.30;4.75;;;;;;;;;;5019576;28;20033;-59
2023/05/27 13:48:48;;;;;;;14.55;5.60;;;;;;;;;;5019581;28;20034;-59
2023/05/27 13:51:15;;;;;;;20.50;5.15;;;;;;;;;;5023063;28;20033;-59
2023/05/27 13:53:41;;;;;;;13.50;4.70;;;;;;;;;;5022937;28;20092;-59
2023/05/27 13:56:07;;;;;;;14.55;5.88;;;;;;;;;;5023101;28;20075;-59
2023/05/27 13:58:33;;;;;;;15.63;5.05;;;;;;;;;;5023794;28;20041;-59
2023/05/27 14:00:59;;;;;;;18.50;6.53;;;;;;;;;;5021894;28;20040;-59
2023/05/27 14:03:25;;;;;;;15.52;5.75;;;;;;;;;;5022549;28;20048;-59
2023/05/27 14:05:51;;;;;;;13.05;5.25;;;;;;;;;;5023349;28;20044;-59
2023/05/27 14:08:17;;;;;;;18.25;6.28;;;;;;;;;;5021619;28;20426;-59
2023/05/27 14:10:43;;;;;;;17.63;5.22;;;;;;;;;;5022008;28;20035;-59
2023/05/27 14:13:09;;;;;;;15.25;4.80;;;;;;;;;;5023181;28;20091;-59
2023/05/27 14:15:36;;;;;;;17.27;5.40;;;;;;;;;;5023554;28;20041;-59
2023/05/27 14:18:04;;;;;;;18.02;5.82;;;;;;;;;;5022926;28;20049;-59
2023/05/27 14:20:30;;;;;;;18.13;5.82;;;;;;;;;;5022955;28;20076;-59
2023/05/27 14:23:01;;;;;;;15.38;5.20;;;;;;;;;;5022451;28;20037;-59
2023/05/27 14:25:28;;;;;;;16.83;5.55;;;;;;;;;;5023256;28;20029;-59
2023/05/27 14:27:56;;;;;;;17.02;5.78;;;;;;;;;;5022135;28;20056;-59